Time;durP1;ratioP1;P1;durP2;ratioP2;P2;SDS_P1;SDS_P2;PMS_P1;PMS_P2;Temp;Humidity;BMP_temperature;BMP_pressure;BME280_temperature;BME280_humidity;BME280_pressure;Samples;Min_cycle;Max_cycle;Signal;HPM_P1;HPM_P2
2020/12/10 00:01:46;;;;;;;41.87;19.07;;;;;;;2.79;97.58;100794.19;5059811;23;20052;-78
2020/12/10 00:04:11;;;;;;;35.63;19.13;;;;;;;2.78;97.57;100796.84;5021964;28;20029;-77
2020/12/10 00:06:37;;;;;;;36.45;19.05;;;;;;;2.79;97.61;100788.97;5039751;28;20039;-77
2020/12/10 00:09:02;;;;;;;38.60;18.67;;;;;;;2.78;97.23;100783.78;5040552;28;20032;-77
2020/12/10 00:11:28;;;;;;;34.38;18.25;;;;;;;2.80;97.53;100785.47;5043080;28;20407;-78
2020/12/10 00:13:53;;;;;;;32.03;17.70;;;;;;;2.82;97.07;100783.72;5039670;28;20025;-78
2020/12/10 00:16:18;;;;;;;33.92;16.08;;;;;;;2.84;96.91;100779.34;5038963;28;20099;-77
2020/12/10 00:18:44;;;;;;;35.67;19.25;;;;;;;2.76;97.22;100772.50;5057069;28;20035;-78
2020/12/10 00:21:09;;;;;;;33.65;17.55;;;;;;;2.75;97.27;100769.03;5028390;28;20028;-78
2020/12/10 00:23:35;;;;;;;32.67;17.83;;;;;;;2.72;97.03;100760.38;5041618;28;20047;-78
2020/12/10 00:26:01;;;;;;;42.75;17.13;;;;;;;2.67;97.36;100756.97;5023749;28;20087;-78
2020/12/10 00:28:27;;;;;;;32.65;16.75;;;;;;;2.58;97.26;100745.78;5040712;28;20025;-83
2020/12/10 00:30:52;;;;;;;32.60;17.77;;;;;;;2.54;97.44;100743.22;5041354;28;20043;-83
2020/12/10 00:33:18;;;;;;;33.17;16.35;;;;;;;2.60;97.16;100758.78;5038895;28;20017;-82
2020/12/10 00:35:43;;;;;;;31.30;16.88;;;;;;;2.57;96.96;100751.00;5058618;28;20031;-83
2020/12/10 00:38:08;;;;;;;31.95;16.67;;;;;;;2.63;97.18;100752.69;5029075;28;20111;-83
2020/12/10 00:40:34;;;;;;;28.85;15.20;;;;;;;2.60;97.26;100756.19;5038439;28;20028;-82
2020/12/10 00:42:59;;;;;;;26.88;15.55;;;;;;;2.62;96.84;100757.03;5043290;28;20523;-83
2020/12/10 00:45:24;;;;;;;28.23;14.15;;;;;;;2.62;96.66;100749.22;5052213;28;20040;-83
2020/12/10 00:47:50;;;;;;;26.98;14.77;;;;;;;2.57;96.63;100751.00;5056636;28;20028;-82
2020/12/10 00:50:16;;;;;;;26.73;13.82;;;;;;;2.52;96.74;100752.81;5060504;28;20123;-82
2020/12/10 00:52:41;;;;;;;28.38;15.45;;;;;;;2.37;97.31;100753.00;5038330;28;20178;-82
2020/12/10 00:55:06;;;;;;;22.25;13.82;;;;;;;2.40;97.16;100759.03;5044739;28;20377;-82
2020/12/10 00:57:31;;;;;;;28.55;14.63;;;;;;;2.32;97.37;100753.94;5038214;28;20273;-83
2020/12/10 00:59:57;;;;;;;29.23;13.63;;;;;;;2.29;97.55;100755.69;5053206;28;20107;-82
2020/12/10 01:02:22;;;;;;;26.52;14.15;;;;;;;2.27;97.52;100755.72;5041274;28;20052;-83
2020/12/10 01:04:47;;;;;;;24.83;14.45;;;;;;;2.32;97.39;100755.69;5035593;28;20396;-83
2020/12/10 01:07:14;;;;;;;25.17;14.18;;;;;;;2.30;97.53;100755.66;5036196;28;20123;-82
2020/12/10 01:09:39;;;;;;;27.17;15.15;;;;;;;2.35;97.08;100763.44;5036593;28;20031;-83
2020/12/10 01:12:05;;;;;;;24.42;12.95;;;;;;;2.37;97.03;100759.09;5037610;28;20033;-82
2020/12/10 01:14:31;;;;;;;22.13;13.07;;;;;;;2.40;96.92;100763.38;5036900;28;20031;-83
2020/12/10 01:16:57;;;;;;;22.67;12.85;;;;;;;2.43;96.69;100760.75;5014913;28;20081;-83
2020/12/10 01:19:22;;;;;;;23.48;12.50;;;;;;;2.34;96.88;100751.28;5037126;28;20036;-84
2020/12/10 01:21:48;;;;;;;23.52;13.23;;;;;;;2.44;96.82;100757.25;5020076;28;20034;-84
2020/12/10 01:24:13;;;;;;;24.73;13.35;;;;;;;2.39;97.06;100757.31;5041227;28;20025;-83
2020/12/10 01:26:38;;;;;;;21.25;12.63;;;;;;;2.46;96.53;100748.56;5035850;28;20506;-83
2020/12/10 01:29:05;;;;;;;26.95;14.45;;;;;;;2.48;96.51;100752.00;5006757;28;20021;-78
2020/12/10 01:31:30;;;;;;;26.55;13.60;;;;;;;2.42;96.93;100759.03;5019773;28;20057;-78
2020/12/10 01:33:56;;;;;;;24.08;12.35;;;;;;;2.48;96.12;100749.38;5037309;28;20061;-78
2020/12/10 01:36:23;;;;;;;22.63;13.25;;;;;;;2.46;96.34;100750.25;5017194;28;20083;-78
2020/12/10 01:38:50;;;;;;;24.27;14.13;;;;;;;2.42;96.33;100756.44;5021563;28;20033;-79
2020/12/10 01:41:16;;;;;;;21.02;11.70;;;;;;;2.37;96.44;100747.78;5042310;28;20079;-78
2020/12/10 01:43:41;;;;;;;21.67;12.25;;;;;;;2.33;96.32;100749.56;5034636;28;20571;-78
2020/12/10 01:46:07;;;;;;;23.15;12.55;;;;;;;2.28;96.57;100752.22;5021491;28;20109;-78
2020/12/10 01:48:33;;;;;;;23.55;12.52;;;;;;;2.24;96.75;100758.34;5034399;28;20029;-78
2020/12/10 01:50:59;;;;;;;23.38;13.38;;;;;;;2.23;96.79;100748.81;5022293;28;20020;-79
2020/12/10 01:53:24;;;;;;;23.02;12.35;;;;;;;2.26;96.84;100750.50;5020969;28;20393;-78
2020/12/10 01:55:50;;;;;;;21.90;12.63;;;;;;;2.29;96.13;100742.66;5021973;28;20029;-77
2020/12/10 01:58:15;;;;;;;21.40;12.15;;;;;;;2.27;96.45;100741.81;4998860;28;20522;-78
2020/12/10 02:00:40;;;;;;;21.92;11.23;;;;;;;2.23;96.59;100735.78;5022950;28;20045;-78
2020/12/10 02:03:06;;;;;;;25.65;12.32;;;;;;;2.25;96.52;100734.00;5017910;28;20053;-78
2020/12/10 02:05:31;;;;;;;22.00;12.18;;;;;;;2.19;96.45;100728.88;5040217;28;20535;-78
2020/12/10 02:07:56;;;;;;;20.70;12.10;;;;;;;2.17;96.22;100722.81;5033109;28;20031;-78
2020/12/10 02:10:21;;;;;;;20.70;11.50;;;;;;;2.15;96.33;100716.75;5023647;28;20035;-79
2020/12/10 02:12:47;;;;;;;23.00;11.82;;;;;;;2.20;96.18;100721.91;5038180;28;20027;-79
2020/12/10 02:15:12;;;;;;;17.45;11.00;;;;;;;2.19;96.31;100722.78;5039690;28;20369;-78
2020/12/10 02:17:37;;;;;;;23.90;11.82;;;;;;;2.19;96.24;100717.56;5021021;28;20025;-78
2020/12/10 02:20:05;;;;;;;19.75;10.93;;;;;;;2.20;96.50;100706.25;5021162;28;20060;-78
2020/12/10 02:22:30;;;;;;;16.27;10.32;;;;;;;2.26;95.80;100719.22;5021300;28;20108;-78
2020/12/10 02:24:55;;;;;;;22.80;11.07;;;;;;;2.28;95.75;100709.66;5002274;28;20117;-78
2020/12/10 02:27:20;;;;;;;20.05;11.65;;;;;;;2.28;95.96;100710.50;5035404;28;20029;-78
2020/12/10 02:29:46;;;;;;;18.73;10.27;;;;;;;2.36;95.04;100706.91;5040186;28;20109;-78
2020/12/10 02:32:11;;;;;;;18.25;10.27;;;;;;;2.39;94.87;100704.28;5019943;28;20101;-78
2020/12/10 02:34:36;;;;;;;20.00;10.43;;;;;;;2.33;95.22;100700.88;5040823;28;20025;-78
2020/12/10 02:37:02;;;;;;;20.48;10.63;;;;;;;2.34;95.21;100696.50;5035114;28;20037;-78
2020/12/10 02:39:27;;;;;;;19.33;10.80;;;;;;;2.32;95.29;100693.09;5020122;28;20590;-77
2020/12/10 02:41:52;;;;;;;19.17;11.10;;;;;;;2.34;94.96;100694.78;5040185;28;20033;-79
2020/12/10 02:44:18;;;;;;;19.42;11.60;;;;;;;2.29;95.21;100691.34;5034457;28;20024;-78
2020/12/10 02:46:44;;;;;;;17.90;10.90;;;;;;;2.32;95.11;100680.03;5019916;28;20040;-78
2020/12/10 02:49:09;;;;;;;19.25;10.95;;;;;;;2.32;95.27;100688.72;5034774;28;20051;-78
2020/12/10 02:51:34;;;;;;;25.17;11.63;;;;;;;2.29;95.20;100675.72;5034994;28;20342;-78
2020/12/10 02:54:00;;;;;;;17.75;9.45;;;;;;;2.27;95.29;100672.28;5019816;28;20047;-78
2020/12/10 02:56:25;;;;;;;18.98;10.32;;;;;;;2.27;95.39;100666.19;5037887;28;20036;-78
2020/12/10 02:58:50;;;;;;;19.15;10.35;;;;;;;2.29;95.32;100667.03;5034146;28;20025;-78
2020/12/10 03:04:37;;;;;;;18.10;9.95;;;;;;;2.27;95.15;100667.06;5025892;28;20044;-77
2020/12/10 03:07:02;;;;;;;16.60;9.18;;;;;;;2.22;95.21;100666.25;5016462;28;20034;-78
2020/12/10 03:09:28;;;;;;;18.23;9.77;;;;;;;2.26;95.12;100667.06;5016375;28;20452;-78
2020/12/10 03:11:53;;;;;;;19.48;9.73;;;;;;;2.27;94.98;100674.88;5038387;28;20064;-78
2020/12/10 03:14:18;;;;;;;15.15;8.77;;;;;;;2.24;95.21;100661.88;5038336;28;20822;-78
2020/12/10 03:16:43;;;;;;;17.08;10.27;;;;;;;2.23;95.10;100665.38;5034850;28;20029;-78
2020/12/10 03:19:09;;;;;;;17.25;9.93;;;;;;;2.21;95.42;100667.16;5002581;28;20017;-78
2020/12/10 03:21:34;;;;;;;17.88;9.60;;;;;;;2.26;95.06;100667.94;5032346;28;20492;-78
2020/12/10 03:23:59;;;;;;;20.95;9.80;;;;;;;2.21;95.24;100664.53;4995433;28;20079;-78
2020/12/10 03:26:25;;;;;;;19.05;9.10;;;;;;;2.24;95.10;100666.22;5033750;28;20423;-78
2020/12/10 03:28:50;;;;;;;17.05;9.93;;;;;;;2.24;94.95;100663.63;5028322;28;20489;-78
2020/12/10 03:31:15;;;;;;;19.60;10.35;;;;;;;2.17;95.04;100656.78;5023674;28;20506;-78
2020/12/10 03:33:40;;;;;;;17.83;9.60;;;;;;;2.14;95.29;100655.03;5031030;28;20017;-78
2020/12/10 03:36:06;;;;;;;18.20;10.05;;;;;;;2.04;95.71;100658.66;5035385;28;20029;-78
2020/12/10 03:38:31;;;;;;;18.90;10.63;;;;;;;1.98;95.78;100649.16;5036244;28;20024;-78
2020/12/10 03:40:56;;;;;;;15.75;9.70;;;;;;;1.96;95.89;100648.34;5022314;28;20055;-78
2020/12/10 03:43:21;;;;;;;17.88;10.07;;;;;;;1.92;96.03;100645.78;5015625;28;20034;-78
2020/12/10 03:45:47;;;;;;;19.33;10.25;;;;;;;1.89;95.96;100646.66;5038265;28;20582;-78
2020/12/10 03:48:12;;;;;;;20.52;10.70;;;;;;;1.82;96.37;100645.03;5037170;28;20037;-78
2020/12/10 03:50:37;;;;;;;18.88;10.43;;;;;;;1.76;96.36;100637.28;5037291;28;20029;-78
2020/12/10 03:53:02;;;;;;;21.52;10.88;;;;;;;1.73;96.66;100634.72;5010273;28;20030;-78
2020/12/10 03:55:28;;;;;;;17.00;10.40;;;;;;;1.74;96.55;100620.78;5035995;28;20112;-78
2020/12/10 03:57:53;;;;;;;19.95;10.43;;;;;;;1.66;96.67;100633.94;5037978;28;20025;-78
2020/12/10 04:00:20;;;;;;;20.17;10.88;;;;;;;1.64;97.19;100638.28;5020152;28;20382;-78
2020/12/10 04:02:45;;;;;;;21.17;10.88;;;;;;;1.60;97.05;100636.56;5029911;28;20076;-78
2020/12/10 04:05:11;;;;;;;24.52;11.70;;;;;;;1.63;96.99;100630.47;5034749;28;20029;-77
2020/12/10 04:07:36;;;;;;;22.00;11.60;;;;;;;1.59;97.09;100631.38;5036082;28;20062;-78
2020/12/10 04:10:02;;;;;;;22.08;10.63;;;;;;;1.59;97.06;100632.25;5038143;28;20427;-78
2020/12/10 04:12:27;;;;;;;26.75;12.27;;;;;;;1.55;97.26;100640.97;5023867;28;20477;-77
2020/12/10 04:14:53;;;;;;;20.45;10.90;;;;;;;1.53;97.11;100638.38;5016046;28;20112;-78
2020/12/10 04:17:18;;;;;;;19.35;10.93;;;;;;;1.50;97.55;100638.41;5041744;28;20025;-78
2020/12/10 04:19:43;;;;;;;17.23;9.88;;;;;;;1.63;97.34;100640.91;5016360;28;20037;-78
2020/12/10 04:22:08;;;;;;;21.15;10.13;;;;;;;1.67;97.00;100637.38;5034358;28;20028;-78
2020/12/10 04:24:34;;;;;;;19.38;10.48;;;;;;;1.60;96.94;100625.28;5039030;28;20041;-78
2020/12/10 04:26:59;;;;;;;20.17;10.88;;;;;;;1.61;97.07;100624.41;5021465;28;20413;-78
2020/12/10 04:29:24;;;;;;;20.63;12.00;;;;;;;1.57;97.07;100623.59;5032887;28;20029;-78
2020/12/10 04:31:49;;;;;;;22.45;12.35;;;;;;;1.52;97.29;100621.03;5019822;28;20048;-78
2020/12/10 04:34:15;;;;;;;20.95;11.98;;;;;;;1.56;97.03;100627.09;5034198;28;20053;-78
2020/12/10 04:36:41;;;;;;;21.58;12.02;;;;;;;1.66;96.79;100626.09;5037547;28;20025;-79
2020/12/10 04:39:06;;;;;;;20.35;10.65;;;;;;;1.67;96.71;100632.19;5039420;28;20392;-78
2020/12/10 04:41:35;;;;;;;21.27;11.82;;;;;;;1.69;96.62;100638.22;5035660;28;20093;-78
2020/12/10 04:44:00;;;;;;;21.38;11.00;;;;;;;1.66;96.67;100639.13;5035266;28;20037;-78
2020/12/10 04:46:25;;;;;;;23.08;11.15;;;;;;;1.71;96.71;100636.47;5036664;28;20079;-78
2020/12/10 04:48:52;;;;;;;23.10;11.43;;;;;;;1.67;96.74;100632.19;5034918;28;20029;-78
2020/12/10 04:51:20;;;;;;;21.70;11.07;;;;;;;1.64;96.67;100630.47;5018779;28;20104;-78
2020/12/10 04:53:46;;;;;;;21.10;11.32;;;;;;;1.61;96.89;100634.81;5012239;28;20025;-78
2020/12/10 04:56:11;;;;;;;20.80;11.65;;;;;;;1.67;96.65;100638.25;5040075;28;20392;-78
2020/12/10 04:58:36;;;;;;;22.65;11.02;;;;;;;1.61;97.05;100640.94;5031934;28;20029;-78
2020/12/10 05:01:03;;;;;;;21.35;11.60;;;;;;;1.53;97.31;100640.13;5033310;28;20123;-79
2020/12/10 05:03:29;;;;;;;23.27;11.63;;;;;;;1.60;97.41;100639.19;5044398;28;20064;-78
2020/12/10 05:06:09;;;;;;;23.45;11.77;;;;;;;1.62;96.96;100637.44;5034814;28;20037;-78
2020/12/10 05:08:34;;;;;;;20.05;11.23;;;;;;;1.70;96.60;100638.19;5030977;28;20021;-78
2020/12/10 05:10:59;;;;;;;19.85;11.80;;;;;;;1.63;96.76;100641.75;5015687;28;20100;-78
2020/12/10 05:13:25;;;;;;;25.25;11.27;;;;;;;1.61;97.00;100648.75;5018113;28;20025;-78
2020/12/10 05:15:51;;;;;;;25.33;10.57;;;;;;;1.61;97.12;100645.25;5016436;28;20032;-79
2020/12/10 05:18:17;;;;;;;26.02;11.52;;;;;;;1.60;97.27;100646.13;5031785;28;20031;-78
2020/12/10 05:20:46;;;;;;;22.40;10.70;;;;;;;1.51;97.33;100641.91;5039552;28;20021;-78
2020/12/10 05:23:14;;;;;;;24.52;11.90;;;;;;;1.51;97.50;100654.94;5020980;28;20665;-79
2020/12/10 05:25:46;;;;;;;22.80;11.35;;;;;;;1.47;97.50;100653.22;5020078;28;20056;-78
2020/12/10 05:28:11;;;;;;;20.70;11.48;;;;;;;1.40;97.85;100655.00;5040597;28;20477;-78
2020/12/10 05:30:36;;;;;;;19.98;12.07;;;;;;;1.42;98.13;100655.03;5029398;28;20036;-78
2020/12/10 05:33:13;;;;;;;23.83;11.82;;;;;;;1.37;98.04;100659.41;5035186;28;20699;-79
2020/12/10 05:35:39;;;;;;;22.88;12.52;;;;;;;1.31;98.39;100662.06;5002356;28;20416;-79
2020/12/10 05:38:08;;;;;;;21.63;10.75;;;;;;;1.21;98.53;100656.94;5018738;28;20057;-79
2020/12/10 05:40:34;;;;;;;22.20;11.95;;;;;;;1.17;98.89;100667.41;5040663;28;20108;-79
2020/12/10 05:42:59;;;;;;;22.10;12.25;;;;;;;1.14;98.75;100657.88;5020141;28;20101;-79
2020/12/10 05:45:24;;;;;;;24.95;11.82;;;;;;;1.15;98.90;100666.53;5037531;28;20056;-79
2020/12/10 05:47:53;;;;;;;29.75;12.70;;;;;;;1.07;99.01;100666.63;5019204;28;20148;-78
2020/12/10 05:50:24;;;;;;;22.80;12.40;;;;;;;1.01;99.04;100670.13;5033831;28;20036;-78
2020/12/10 05:53:11;;;;;;;21.50;12.45;;;;;;;1.02;98.73;100665.78;5032036;28;20061;-79
2020/12/10 05:55:39;;;;;;;28.02;12.77;;;;;;;0.98;98.97;100672.75;5020979;28;20037;-79
2020/12/10 05:58:05;;;;;;;26.45;14.23;;;;;;;0.97;98.90;100670.16;5032741;28;20181;-79
2020/12/10 06:00:31;;;;;;;24.65;13.57;;;;;;;1.00;98.72;100667.53;5036088;28;20100;-79
2020/12/10 06:02:58;;;;;;;23.15;13.25;;;;;;;1.04;98.29;100672.69;5020132;28;20488;-78
2020/12/10 06:05:25;;;;;;;27.27;14.73;;;;;;;1.10;97.82;100669.16;5027174;28;20025;-78
2020/12/10 06:07:58;;;;;;;24.77;13.30;;;;;;;1.04;98.08;100677.03;5033911;28;20047;-79
2020/12/10 06:10:25;;;;;;;19.00;11.23;;;;;;;1.08;98.03;100680.50;5042412;28;20060;-79
2020/12/10 06:12:51;;;;;;;22.92;11.98;;;;;;;1.12;98.02;100690.88;5028316;28;20055;-78
2020/12/10 06:15:22;;;;;;;22.58;11.95;;;;;;;1.12;97.44;100687.41;5028332;28;20090;-79
2020/12/10 06:18:03;;;;;;;24.90;11.93;;;;;;;1.23;96.97;100698.59;5030413;28;20043;-78
2020/12/10 06:20:40;;;;;;;24.67;13.23;;;;;;;1.16;97.11;100689.97;5019257;28;20033;-79
2020/12/10 06:23:32;;;;;;;20.50;11.60;;;;;;;1.23;96.89;100686.44;5029698;28;20025;-79
2020/12/10 06:25:59;;;;;;;25.90;12.80;;;;;;;1.17;96.89;100686.50;5038265;28;20031;-78
2020/12/10 06:28:25;;;;;;;24.50;13.25;;;;;;;1.21;96.88;100689.94;5014774;28;20497;-79
2020/12/10 06:31:05;;;;;;;23.63;12.38;;;;;;;1.18;96.83;100687.34;5043008;28;20033;-79
2020/12/10 06:33:44;;;;;;;21.10;12.27;;;;;;;1.18;96.74;100690.81;5028018;28;20119;-79
2020/12/10 06:36:29;;;;;;;20.90;12.02;;;;;;;1.16;96.48;100687.38;5028831;28;20044;-79
2020/12/10 06:38:56;;;;;;;21.85;11.48;;;;;;;1.18;96.45;100695.16;5026848;28;20029;-78
2020/12/10 06:41:23;;;;;;;25.73;11.93;;;;;;;1.22;96.46;100694.25;5034187;28;20032;-79
2020/12/10 06:43:48;;;;;;;22.02;11.70;;;;;;;1.24;96.08;100701.16;5016612;28;20148;-79
2020/12/10 06:46:14;;;;;;;19.27;11.02;;;;;;;1.26;96.23;100706.38;5007423;28;20108;-79
2020/12/10 06:48:43;;;;;;;22.38;11.60;;;;;;;1.35;96.03;100705.41;4985280;28;20052;-79
2020/12/10 06:51:14;;;;;;;19.60;11.73;;;;;;;1.26;95.43;100696.81;5013536;28;20029;-79
2020/12/10 06:53:40;;;;;;;25.67;12.25;;;;;;;1.32;95.56;100695.03;5030807;28;20017;-79
2020/12/10 06:56:09;;;;;;;23.02;13.07;;;;;;;1.33;95.99;100689.81;5033029;28;20029;-79
2020/12/10 06:58:46;;;;;;;21.60;11.52;;;;;;;1.28;95.31;100689.84;5013357;28;20069;-79
2020/12/10 07:01:27;;;;;;;22.52;11.77;;;;;;;1.32;95.19;100695.03;5024996;28;20146;-80
2020/12/10 07:04:08;;;;;;;22.13;10.85;;;;;;;1.28;95.46;100689.00;4990717;28;20110;-80
2020/12/10 07:06:33;;;;;;;23.25;11.55;;;;;;;1.31;95.78;100682.91;4998457;28;20033;-82
2020/12/10 07:09:06;;;;;;;27.33;11.40;;;;;;;1.36;95.37;100683.72;5015989;28;20021;-81
2020/12/10 07:11:34;;;;;;;23.00;11.35;;;;;;;1.31;95.34;100680.31;5034182;28;20495;-80
2020/12/10 07:14:02;;;;;;;22.75;10.40;;;;;;;1.35;95.12;100671.56;5035248;28;20018;-81
2020/12/10 07:16:29;;;;;;;21.05;10.23;;;;;;;1.29;95.16;100672.47;5020907;28;20033;-81
2020/12/10 07:18:55;;;;;;;23.08;11.73;;;;;;;1.29;95.53;100673.34;5016248;28;20091;-81
2020/12/10 07:21:22;;;;;;;23.05;11.27;;;;;;;1.33;95.37;100662.91;5037585;28;20507;-80
2020/12/10 07:23:47;;;;;;;26.42;11.85;;;;;;;1.27;95.34;100671.66;5018196;28;20034;-80
2020/12/10 07:26:13;;;;;;;25.50;12.07;;;;;;;1.23;95.57;100680.34;5037468;28;20531;-80
2020/12/10 07:28:38;;;;;;;23.77;12.52;;;;;;;1.24;95.57;100684.69;5018536;28;20025;-80
2020/12/10 07:31:03;;;;;;;23.65;12.40;;;;;;;1.14;96.00;100683.03;5035910;28;20025;-80
2020/12/10 07:33:29;;;;;;;30.23;11.00;;;;;;;1.15;95.82;100688.22;5037045;28;20654;-81
2020/12/10 07:35:54;;;;;;;23.33;11.40;;;;;;;1.07;96.01;100689.19;5032978;28;20079;-81
2020/12/10 07:38:19;;;;;;;35.38;12.00;;;;;;;1.02;95.81;100681.41;5019424;28;20082;-80
2020/12/10 07:40:52;;;;;;;24.52;11.55;;;;;;;1.06;95.87;100687.47;5017047;28;20075;-81
2020/12/10 07:43:17;;;;;;;23.83;11.77;;;;;;;0.97;96.12;100697.06;5017117;28;20519;-81
2020/12/10 07:45:49;;;;;;;24.38;11.10;;;;;;;0.96;96.12;100697.06;5037264;28;20041;-80
2020/12/10 07:48:14;;;;;;;27.75;12.00;;;;;;;0.99;96.11;100703.09;5036349;28;20419;-81
2020/12/10 07:50:45;;;;;;;29.95;12.05;;;;;;;1.06;96.28;100700.47;5021470;28;20029;-81
2020/12/10 07:53:10;;;;;;;27.60;10.65;;;;;;;0.96;96.51;100697.06;5029685;28;20044;-82
2020/12/10 07:55:43;;;;;;;22.35;11.85;;;;;;;1.00;96.30;100706.56;5034266;28;20029;-81
2020/12/10 07:58:28;;;;;;;25.50;12.25;;;;;;;0.95;96.30;100708.34;5017180;28;20056;-82
2020/12/10 08:00:58;;;;;;;21.25;11.50;;;;;;;0.89;96.46;100704.03;5037340;28;20041;-83
2020/12/10 08:03:37;;;;;;;24.50;12.32;;;;;;;0.82;96.69;100698.91;5032958;28;20025;-82
2020/12/10 08:06:10;;;;;;;25.67;12.00;;;;;;;0.77;96.77;100693.72;5036469;28;20033;-82
2020/12/10 08:08:39;;;;;;;24.00;12.38;;;;;;;0.79;96.63;100689.38;5043092;28;20112;-82
2020/12/10 08:11:14;;;;;;;26.13;12.80;;;;;;;0.82;96.71;100691.97;5016637;28;20022;-81
2020/12/10 08:14:09;;;;;;;21.60;11.15;;;;;;;0.83;96.43;100696.28;5022216;28;20033;-82
2020/12/10 08:16:36;;;;;;;21.50;10.88;;;;;;;0.87;96.35;100710.16;5032581;28;20025;-82
2020/12/10 08:19:15;;;;;;;22.50;11.95;;;;;;;0.88;96.27;100712.72;5006465;28;20036;-82
2020/12/10 08:21:43;;;;;;;20.70;10.82;;;;;;;0.98;95.68;100717.00;5041408;28;20083;-82
2020/12/10 08:24:09;;;;;;;21.70;11.52;;;;;;;0.95;96.04;100711.78;5022883;28;20109;-82
2020/12/10 08:26:35;;;;;;;19.88;9.95;;;;;;;0.94;95.87;100715.28;5020359;28;20116;-82
2020/12/10 08:29:00;;;;;;;20.10;11.13;;;;;;;0.95;95.79;100711.78;5020941;28;20087;-82
2020/12/10 08:31:28;;;;;;;20.33;11.13;;;;;;;0.98;95.73;100723.94;5014844;28;20037;-82
2020/12/10 08:33:54;;;;;;;19.70;11.60;;;;;;;1.01;95.65;100723.94;5043213;28;20121;-81
2020/12/10 08:36:30;;;;;;;20.55;10.07;;;;;;;1.02;94.78;100723.03;5039120;28;20017;-82
2020/12/10 08:38:59;;;;;;;14.35;8.40;;;;;;;0.94;95.56;100712.69;5031065;28;20473;-81
2020/12/10 08:41:27;;;;;;;17.45;10.68;;;;;;;1.03;94.80;100719.56;5039613;28;20120;-82
2020/12/10 08:43:54;;;;;;;20.13;10.82;;;;;;;1.03;94.60;100724.78;5039263;28;20021;-82
2020/12/10 08:46:19;;;;;;;18.50;10.60;;;;;;;1.07;93.88;100718.69;5037552;28;20509;-83
2020/12/10 08:48:44;;;;;;;21.10;10.93;;;;;;;1.04;93.93;100718.69;5037972;28;20037;-82
2020/12/10 08:51:09;;;;;;;18.60;11.40;;;;;;;1.13;93.96;100720.38;5014298;28;20447;-81
2020/12/10 08:53:35;;;;;;;19.45;11.27;;;;;;;1.07;94.05;100712.59;5036356;28;20048;-81
2020/12/10 08:56:00;;;;;;;15.48;9.68;;;;;;;1.12;93.66;100724.72;5000059;28;20037;-81
2020/12/10 08:58:28;;;;;;;24.15;11.07;;;;;;;1.09;93.85;100714.31;5015737;28;20047;-80
2020/12/10 09:00:55;;;;;;;20.65;10.45;;;;;;;1.12;93.59;100729.91;5033387;28;20468;-81
2020/12/10 09:03:21;;;;;;;19.55;10.88;;;;;;;1.05;93.90;100720.41;5028990;28;20103;-81
2020/12/10 09:05:47;;;;;;;17.85;10.15;;;;;;;1.09;93.79;100722.13;5016445;28;20416;-81
2020/12/10 09:08:13;;;;;;;17.38;10.35;;;;;;;1.17;93.48;100722.06;5040246;28;20025;-81
2020/12/10 09:10:39;;;;;;;17.42;10.00;;;;;;;1.17;93.85;100722.06;5017914;28;20017;-81
2020/12/10 09:13:04;;;;;;;22.55;11.98;;;;;;;1.22;93.75;100717.69;5037384;28;20033;-81
2020/12/10 09:15:30;;;;;;;25.42;11.23;;;;;;;1.25;93.32;100709.84;5036819;28;20052;-81
2020/12/10 09:17:56;;;;;;;25.95;11.93;;;;;;;1.22;93.17;100710.75;5019230;28;20485;-81
2020/12/10 09:20:21;;;;;;;22.30;11.65;;;;;;;1.27;92.99;100708.97;5037086;28;20071;-81
2020/12/10 09:22:47;;;;;;;20.48;10.50;;;;;;;1.35;92.83;100715.84;5033609;28;20064;-81
2020/12/10 09:25:12;;;;;;;23.85;11.23;;;;;;;1.35;92.91;100718.44;5001248;28;20034;-81
2020/12/10 09:27:38;;;;;;;20.55;10.52;;;;;;;1.36;92.70;100720.19;5035509;28;20029;-81
2020/12/10 09:30:06;;;;;;;24.25;12.70;;;;;;;1.45;92.95;100712.28;5029874;28;20037;-81
2020/12/10 09:32:34;;;;;;;17.92;10.43;;;;;;;1.51;92.94;100714.84;5037863;28;20025;-81
2020/12/10 09:35:00;;;;;;;20.88;11.15;;;;;;;1.58;92.17;100710.44;5031496;28;20390;-81
2020/12/10 09:37:26;;;;;;;20.65;10.00;;;;;;;1.67;92.09;100710.34;5033052;28;20041;-80
2020/12/10 09:39:51;;;;;;;19.95;10.77;;;;;;;1.75;91.93;100711.09;5011101;28;20199;-81
2020/12/10 09:42:16;;;;;;;20.90;11.30;;;;;;;1.77;91.75;100706.75;5017669;28;20028;-81
2020/12/10 09:44:42;;;;;;;24.58;10.55;;;;;;;1.88;91.34;100704.91;5031528;28;20021;-81
2020/12/10 09:47:09;;;;;;;22.20;10.35;;;;;;;1.88;91.31;100711.84;5040697;28;20040;-80
2020/12/10 09:49:34;;;;;;;19.80;9.85;;;;;;;1.93;90.99;100710.91;5002246;28;20037;-81
2020/12/10 09:52:02;;;;;;;17.73;10.27;;;;;;;2.01;90.71;100713.47;5019033;28;20028;-80
2020/12/10 09:54:38;;;;;;;17.85;10.25;;;;;;;1.99;90.55;100705.63;5015064;28;20525;-80
2020/12/10 09:57:09;;;;;;;18.67;10.20;;;;;;;2.10;90.45;100715.06;5011290;28;20064;-81
2020/12/10 09:59:37;;;;;;;22.15;11.23;;;;;;;2.14;90.56;100701.13;5036328;28;20013;-80
2020/12/10 10:02:03;;;;;;;16.92;9.52;;;;;;;2.21;90.19;100711.47;5000639;28;20501;-81
2020/12/10 10:04:30;;;;;;;21.50;10.93;;;;;;;2.30;90.40;100715.69;5003377;28;20025;-81
2020/12/10 10:06:55;;;;;;;18.00;10.50;;;;;;;2.31;90.23;100720.06;5030129;28;20519;-81
2020/12/10 10:09:21;;;;;;;26.17;12.13;;;;;;;2.24;90.17;100707.94;5006039;28;20045;-80
2020/12/10 10:11:47;;;;;;;30.13;11.55;;;;;;;2.33;89.80;100711.31;4998536;28;20527;-81
2020/12/10 10:14:12;;;;;;;19.35;11.00;;;;;;;2.36;90.19;100704.31;5021129;28;20029;-81
2020/12/10 10:16:37;;;;;;;14.95;9.40;;;;;;;2.39;89.99;100706.91;4998588;28;20076;-81
2020/12/10 10:19:03;;;;;;;28.77;10.15;;;;;;;2.44;90.10;100705.09;4987160;28;20044;-80
2020/12/10 10:21:28;;;;;;;22.98;10.68;;;;;;;2.44;89.66;100692.91;5016552;28;20025;-80
2020/12/10 10:23:55;;;;;;;17.73;10.25;;;;;;;2.46;89.69;100698.09;5001941;28;20017;-81
2020/12/10 10:26:21;;;;;;;19.40;9.30;;;;;;;2.52;88.93;100698.91;5033933;28;20033;-81
2020/12/10 10:28:49;;;;;;;24.42;11.70;;;;;;;2.57;89.12;100699.69;5030382;28;20039;-81
2020/12/10 10:31:14;;;;;;;26.60;9.45;;;;;;;2.62;89.04;100704.84;5037167;28;21612;-81
2020/12/10 10:33:40;;;;;;;22.45;10.30;;;;;;;2.60;89.08;100698.78;5014518;28;20024;-81
2020/12/10 10:36:05;;;;;;;24.88;10.25;;;;;;;2.67;88.82;100700.44;4997358;28;20040;-81
2020/12/10 10:38:31;;;;;;;17.83;10.00;;;;;;;2.69;87.77;100696.03;5009330;28;20037;-80
2020/12/10 10:40:56;;;;;;;20.92;10.85;;;;;;;2.75;88.20;100703.78;5012011;28;20115;-81
2020/12/10 10:43:22;;;;;;;24.35;10.13;;;;;;;2.74;88.42;100702.06;5032494;28;20182;-81
2020/12/10 10:45:47;;;;;;;22.17;10.45;;;;;;;2.80;87.98;100696.72;5031803;28;20108;-81
2020/12/10 10:48:12;;;;;;;16.75;9.18;;;;;;;2.75;87.63;100697.69;5016328;28;20040;-80
2020/12/10 10:50:38;;;;;;;23.65;9.48;;;;;;;2.77;87.56;100704.63;5013202;28;20538;-80
2020/12/10 10:53:03;;;;;;;39.65;10.77;;;;;;;2.65;87.82;100703.94;5034766;28;20076;-79
2020/12/10 10:55:28;;;;;;;32.05;10.30;;;;;;;2.65;87.91;100704.78;5020443;28;20109;-79
2020/12/10 10:57:54;;;;;;;19.55;10.05;;;;;;;2.69;88.03;100698.66;5015030;28;20133;-79
2020/12/10 11:00:19;;;;;;;28.30;9.95;;;;;;;2.78;88.07;100690.69;5025770;28;20049;-79
2020/12/10 11:02:45;;;;;;;25.50;9.25;;;;;;;2.77;87.12;100688.97;5030721;28;20021;-79
2020/12/10 11:05:11;;;;;;;31.23;9.60;;;;;;;2.94;87.45;100686.09;4986892;28;20075;-79
2020/12/10 11:07:36;;;;;;;25.60;10.10;;;;;;;3.16;86.71;100685.75;5015421;28;20033;-80
2020/12/10 11:10:04;;;;;;;26.55;10.13;;;;;;;3.24;85.97;100684.72;5029286;28;20038;-80
2020/12/10 11:12:29;;;;;;;20.08;9.95;;;;;;;3.53;85.36;100683.38;5033399;28;20159;-80
2020/12/10 11:14:54;;;;;;;23.02;10.95;;;;;;;3.52;84.26;100685.13;5026720;28;20479;-80
2020/12/10 11:17:19;;;;;;;18.77;9.82;;;;;;;3.57;83.93;100677.22;5025770;28;20593;-80
2020/12/10 11:19:45;;;;;;;27.10;10.95;;;;;;;3.62;84.24;100676.22;5010698;28;20033;-80